Aérodrome :
LOGIN :

S'inscrire | Disclaimer

   EN    FR    IT 

 










Légende :    VFR   VFR Marginal   IFR   IFR Intensif   IFR Très Intensif
Visi : 
Plafond : 
>= 8 km
>= 3000ft
5 à 8 km
1000 à 3000 ft
1500m à 5 km
500 à 1000 ft
800 à 1500m
200 à 500 ft
< 800m
< 200 ft
Symboles :   Orages  Brouillard  Fortes neiges  Fortes précipitations  Vent > 20 kt
SIGMETs :   Divers  Orages  Givrage  Turbulence  Onde Orograph.  Cendres Volcan.







- Altitude de l'aérodrome : 82 ft
- Code IATA : ALG


DAAG - Alger Houari Boumedienne

DERNIER METAR :
  • 181330Z 01009KT CAVOK 29/18 Q1015

METARs EXPIRÉS :
  • 181300Z 04008KT 010V100 CAVOK 29/19 Q1015
  • 181230Z 05008KT 350V080 CAVOK 29/19 Q1015
  • 181200Z 02007KT 330V070 CAVOK 29/19 Q1015
  • 181130Z 03005KT 330V110 CAVOK 29/19 Q1015
  • 181100Z 02006KT 340V090 CAVOK 28/19 Q1015

TAF TAF DAAG
Valide du 18 à 12h jusqu'au 19 à 12h UTC


181100Z 1812/1912 02010KT CAVOK
BECMG 1818/1821 VRB02KT
TEMPO 1822/1906 FEW030CB
PROB30
TEMPO 1902/1906 VRB15G25KT 5000 -TSRA FEW030CB
PROB30
TEMPO 1906/1909 BKN015
BECMG 1908/1911 32010KT
Pas de NOTAMs connus pour ce terrain.



MET'MAP, la Météo Aéronautique d'un coup d'oeil ! - Copyright ORBIFLY Décembre 2007 - Disclaimer

ORBIFLY MET'MAP TEAM :

Programmation & Développement : Alexandra Zaïnal
Conception & Développement : Baudouin d'Aumeries
Co-Programmation & Développement : Marc-Olivier Méhu
Soutien technique & logistique : Manuel Goepfert

Contact : metmap@orbifly.com




SOURCES & CREDITS :

   NOAA